sensor_id;sensor_type;location;lat;lon;timestamp;P1;durP1;ratioP1;P2;durP2;ratioP2
41061;SDS011;26812;42.662;23.352;2023-07-29T00:01:13;2.85;;;2.65;;
41061;SDS011;26812;42.662;23.352;2023-07-29T00:03:38;3.58;;;2.70;;
41061;SDS011;26812;42.662;23.352;2023-07-29T00:06:03;3.08;;;2.83;;
41061;SDS011;26812;42.662;23.352;2023-07-29T00:08:29;4.57;;;2.67;;
41061;SDS011;26812;42.662;23.352;2023-07-29T00:10:54;3.88;;;2.53;;
41061;SDS011;26812;42.662;23.352;2023-07-29T00:13:19;2.55;;;2.35;;
41061;SDS011;26812;42.662;23.352;2023-07-29T00:15:45;3.80;;;3.05;;
41061;SDS011;26812;42.662;23.352;2023-07-29T00:18:10;2.33;;;2.13;;
41061;SDS011;26812;42.662;23.352;2023-07-29T00:20:36;3.58;;;2.67;;
41061;SDS011;26812;42.662;23.352;2023-07-29T00:23:01;3.25;;;2.60;;
41061;SDS011;26812;42.662;23.352;2023-07-29T00:25:27;3.33;;;2.50;;
41061;SDS011;26812;42.662;23.352;2023-07-29T00:27:55;2.92;;;2.20;;
41061;SDS011;26812;42.662;23.352;2023-07-29T00:30:21;4.03;;;2.60;;
41061;SDS011;26812;42.662;23.352;2023-07-29T00:32:46;4.13;;;2.35;;
41061;SDS011;26812;42.662;23.352;2023-07-29T00:35:12;3.38;;;2.33;;
41061;SDS011;26812;42.662;23.352;2023-07-29T00:37:37;2.50;;;2.30;;
41061;SDS011;26812;42.662;23.352;2023-07-29T00:40:04;2.90;;;2.13;;
41061;SDS011;26812;42.662;23.352;2023-07-29T00:42:44;2.30;;;2.10;;
41061;SDS011;26812;42.662;23.352;2023-07-29T00:45:10;3.58;;;2.50;;
41061;SDS011;26812;42.662;23.352;2023-07-29T00:47:35;2.38;;;2.17;;
41061;SDS011;26812;42.662;23.352;2023-07-29T00:50:01;3.60;;;2.40;;
41061;SDS011;26812;42.662;23.352;2023-07-29T00:52:27;3.78;;;2.42;;
41061;SDS011;26812;42.662;23.352;2023-07-29T00:54:52;2.90;;;2.53;;
41061;SDS011;26812;42.662;23.352;2023-07-29T00:57:18;2.67;;;2.47;;
41061;SDS011;26812;42.662;23.352;2023-07-29T00:59:44;3.22;;;2.63;;
41061;SDS011;26812;42.662;23.352;2023-07-29T01:02:09;3.10;;;2.58;;
41061;SDS011;26812;42.662;23.352;2023-07-29T01:04:35;3.05;;;2.47;;
41061;SDS011;26812;42.662;23.352;2023-07-29T01:07:21;3.22;;;2.67;;
41061;SDS011;26812;42.662;23.352;2023-07-29T01:10:04;2.83;;;2.63;;
41061;SDS011;26812;42.662;23.352;2023-07-29T01:15:21;2.78;;;2.58;;
41061;SDS011;26812;42.662;23.352;2023-07-29T01:17:59;2.58;;;2.33;;
41061;SDS011;26812;42.662;23.352;2023-07-29T01:20:29;3.75;;;2.65;;
41061;SDS011;26812;42.662;23.352;2023-07-29T01:23:01;3.38;;;2.70;;
41061;SDS011;26812;42.662;23.352;2023-07-29T01:25:26;3.08;;;2.80;;
41061;SDS011;26812;42.662;23.352;2023-07-29T01:27:52;4.35;;;2.67;;
41061;SDS011;26812;42.662;23.352;2023-07-29T01:30:18;4.90;;;3.03;;
41061;SDS011;26812;42.662;23.352;2023-07-29T01:35:28;5.13;;;2.42;;
41061;SDS011;26812;42.662;23.352;2023-07-29T01:38:00;3.20;;;2.63;;
41061;SDS011;26812;42.662;23.352;2023-07-29T01:40:30;3.08;;;2.70;;
41061;SDS011;26812;42.662;23.352;2023-07-29T01:42:56;3.17;;;2.78;;
41061;SDS011;26812;42.662;23.352;2023-07-29T01:45:25;2.47;;;2.28;;
41061;SDS011;26812;42.662;23.352;2023-07-29T01:47:50;3.75;;;2.95;;
41061;SDS011;26812;42.662;23.352;2023-07-29T01:50:16;5.88;;;2.60;;
41061;SDS011;26812;42.662;23.352;2023-07-29T01:52:42;4.28;;;2.55;;
41061;SDS011;26812;42.662;23.352;2023-07-29T01:55:07;3.30;;;2.90;;
41061;SDS011;26812;42.662;23.352;2023-07-29T01:57:33;4.03;;;2.83;;
41061;SDS011;26812;42.662;23.352;2023-07-29T01:59:58;3.35;;;3.05;;
41061;SDS011;26812;42.662;23.352;2023-07-29T02:02:24;2.92;;;2.72;;
41061;SDS011;26812;42.662;23.352;2023-07-29T02:04:49;4.25;;;3.10;;
41061;SDS011;26812;42.662;23.352;2023-07-29T02:07:17;5.15;;;3.15;;
41061;SDS011;26812;42.662;23.352;2023-07-29T02:09:43;3.78;;;2.75;;
41061;SDS011;26812;42.662;23.352;2023-07-29T02:12:08;5.97;;;3.00;;
41061;SDS011;26812;42.662;23.352;2023-07-29T02:14:34;3.38;;;2.60;;
41061;SDS011;26812;42.662;23.352;2023-07-29T02:16:59;3.65;;;3.35;;
41061;SDS011;26812;42.662;23.352;2023-07-29T02:19:24;3.92;;;3.22;;
41061;SDS011;26812;42.662;23.352;2023-07-29T02:21:50;3.20;;;2.90;;
41061;SDS011;26812;42.662;23.352;2023-07-29T02:24:15;3.13;;;2.83;;
41061;SDS011;26812;42.662;23.352;2023-07-29T02:26:41;3.72;;;2.75;;
41061;SDS011;26812;42.662;23.352;2023-07-29T02:29:07;3.88;;;2.97;;
41061;SDS011;26812;42.662;23.352;2023-07-29T02:31:32;2.60;;;2.40;;
41061;SDS011;26812;42.662;23.352;2023-07-29T02:33:59;3.70;;;3.40;;
41061;SDS011;26812;42.662;23.352;2023-07-29T02:36:25;3.40;;;3.10;;
41061;SDS011;26812;42.662;23.352;2023-07-29T02:38:50;3.88;;;2.72;;
41061;SDS011;26812;42.662;23.352;2023-07-29T02:41:15;3.67;;;3.38;;
41061;SDS011;26812;42.662;23.352;2023-07-29T02:43:42;3.45;;;2.80;;
41061;SDS011;26812;42.662;23.352;2023-07-29T02:46:14;3.42;;;2.55;;
41061;SDS011;26812;42.662;23.352;2023-07-29T02:48:40;3.13;;;2.80;;
41061;SDS011;26812;42.662;23.352;2023-07-29T02:51:06;3.35;;;3.05;;
41061;SDS011;26812;42.662;23.352;2023-07-29T02:53:32;3.15;;;2.85;;
41061;SDS011;26812;42.662;23.352;2023-07-29T02:55:57;5.32;;;2.90;;
41061;SDS011;26812;42.662;23.352;2023-07-29T02:58:22;3.20;;;2.90;;
41061;SDS011;26812;42.662;23.352;2023-07-29T03:00:48;3.55;;;3.00;;
41061;SDS011;26812;42.662;23.352;2023-07-29T03:03:13;4.30;;;3.47;;
41061;SDS011;26812;42.662;23.352;2023-07-29T03:05:39;2.58;;;2.38;;
41061;SDS011;26812;42.662;23.352;2023-07-29T03:08:05;4.82;;;3.17;;
41061;SDS011;26812;42.662;23.352;2023-07-29T03:10:30;3.20;;;2.85;;
41061;SDS011;26812;42.662;23.352;2023-07-29T03:12:56;3.10;;;2.80;;
41061;SDS011;26812;42.662;23.352;2023-07-29T03:15:24;4.13;;;2.67;;
41061;SDS011;26812;42.662;23.352;2023-07-29T03:17:50;3.28;;;3.03;;
41061;SDS011;26812;42.662;23.352;2023-07-29T03:20:16;3.60;;;2.65;;
41061;SDS011;26812;42.662;23.352;2023-07-29T03:22:42;4.47;;;2.47;;
41061;SDS011;26812;42.662;23.352;2023-07-29T03:25:08;4.15;;;3.03;;
41061;SDS011;26812;42.662;23.352;2023-07-29T03:27:34;4.28;;;2.75;;
41061;SDS011;26812;42.662;23.352;2023-07-29T03:30:01;3.03;;;2.70;;
41061;SDS011;26812;42.662;23.352;2023-07-29T03:32:27;3.65;;;3.17;;
41061;SDS011;26812;42.662;23.352;2023-07-29T03:34:53;4.65;;;2.95;;
41061;SDS011;26812;42.662;23.352;2023-07-29T03:37:19;3.65;;;2.58;;
41061;SDS011;26812;42.662;23.352;2023-07-29T03:39:45;3.35;;;2.70;;
41061;SDS011;26812;42.662;23.352;2023-07-29T03:42:10;4.63;;;2.80;;
41061;SDS011;26812;42.662;23.352;2023-07-29T03:44:36;3.40;;;2.60;;
41061;SDS011;26812;42.662;23.352;2023-07-29T03:47:01;3.63;;;2.83;;
41061;SDS011;26812;42.662;23.352;2023-07-29T03:49:26;3.75;;;2.90;;
41061;SDS011;26812;42.662;23.352;2023-07-29T03:51:51;6.18;;;3.17;;
41061;SDS011;26812;42.662;23.352;2023-07-29T03:54:17;2.90;;;2.42;;
41061;SDS011;26812;42.662;23.352;2023-07-29T03:56:42;5.18;;;3.45;;
41061;SDS011;26812;42.662;23.352;2023-07-29T03:59:07;3.72;;;3.17;;
41061;SDS011;26812;42.662;23.352;2023-07-29T04:01:33;5.18;;;2.90;;
41061;SDS011;26812;42.662;23.352;2023-07-29T04:03:58;3.70;;;3.40;;
41061;SDS011;26812;42.662;23.352;2023-07-29T04:06:24;3.50;;;2.83;;
41061;SDS011;26812;42.662;23.352;2023-07-29T04:08:50;5.13;;;3.22;;
41061;SDS011;26812;42.662;23.352;2023-07-29T04:11:15;3.00;;;2.63;;
41061;SDS011;26812;42.662;23.352;2023-07-29T04:13:41;4.47;;;3.28;;
41061;SDS011;26812;42.662;23.352;2023-07-29T04:16:06;4.20;;;3.50;;
41061;SDS011;26812;42.662;23.352;2023-07-29T04:18:32;3.28;;;2.97;;
41061;SDS011;26812;42.662;23.352;2023-07-29T04:20:58;5.07;;;3.25;;
41061;SDS011;26812;42.662;23.352;2023-07-29T04:23:23;3.67;;;2.88;;
41061;SDS011;26812;42.662;23.352;2023-07-29T04:25:48;3.65;;;3.30;;
41061;SDS011;26812;42.662;23.352;2023-07-29T04:28:15;4.72;;;3.85;;
41061;SDS011;26812;42.662;23.352;2023-07-29T04:30:40;3.10;;;2.83;;
41061;SDS011;26812;42.662;23.352;2023-07-29T04:33:06;4.05;;;2.63;;
41061;SDS011;26812;42.662;23.352;2023-07-29T04:35:31;4.18;;;3.28;;
41061;SDS011;26812;42.662;23.352;2023-07-29T04:37:56;3.08;;;2.80;;
41061;SDS011;26812;42.662;23.352;2023-07-29T04:40:22;4.53;;;3.17;;
41061;SDS011;26812;42.662;23.352;2023-07-29T04:42:48;2.90;;;2.70;;
41061;SDS011;26812;42.662;23.352;2023-07-29T04:45:13;3.15;;;2.75;;
41061;SDS011;26812;42.662;23.352;2023-07-29T04:47:39;3.28;;;2.97;;
41061;SDS011;26812;42.662;23.352;2023-07-29T04:50:04;4.22;;;2.50;;
41061;SDS011;26812;42.662;23.352;2023-07-29T04:52:31;4.03;;;3.08;;
41061;SDS011;26812;42.662;23.352;2023-07-29T04:54:56;2.95;;;2.67;;
41061;SDS011;26812;42.662;23.352;2023-07-29T04:57:22;3.63;;;2.90;;
41061;SDS011;26812;42.662;23.352;2023-07-29T04:59:47;2.55;;;2.35;;
41061;SDS011;26812;42.662;23.352;2023-07-29T05:02:12;3.00;;;2.58;;
41061;SDS011;26812;42.662;23.352;2023-07-29T05:04:38;3.08;;;2.58;;
41061;SDS011;26812;42.662;23.352;2023-07-29T05:07:03;2.70;;;2.50;;
41061;SDS011;26812;42.662;23.352;2023-07-29T05:09:29;3.53;;;3.03;;
41061;SDS011;26812;42.662;23.352;2023-07-29T05:11:54;2.58;;;2.38;;
41061;SDS011;26812;42.662;23.352;2023-07-29T05:14:20;2.65;;;2.40;;
41061;SDS011;26812;42.662;23.352;2023-07-29T05:16:45;2.80;;;2.45;;
41061;SDS011;26812;42.662;23.352;2023-07-29T05:19:10;3.03;;;2.50;;
41061;SDS011;26812;42.662;23.352;2023-07-29T05:21:37;2.70;;;2.42;;
41061;SDS011;26812;42.662;23.352;2023-07-29T05:24:03;3.65;;;2.95;;
41061;SDS011;26812;42.662;23.352;2023-07-29T05:26:29;2.95;;;2.55;;
41061;SDS011;26812;42.662;23.352;2023-07-29T05:28:54;2.30;;;2.10;;
41061;SDS011;26812;42.662;23.352;2023-07-29T05:31:19;2.83;;;2.63;;
41061;SDS011;26812;42.662;23.352;2023-07-29T05:33:45;2.90;;;2.60;;
41061;SDS011;26812;42.662;23.352;2023-07-29T05:36:10;3.17;;;2.83;;
41061;SDS011;26812;42.662;23.352;2023-07-29T05:38:42;3.53;;;2.22;;
41061;SDS011;26812;42.662;23.352;2023-07-29T05:41:08;3.03;;;2.65;;
41061;SDS011;26812;42.662;23.352;2023-07-29T05:43:33;4.50;;;3.10;;
41061;SDS011;26812;42.662;23.352;2023-07-29T05:45:58;4.22;;;2.88;;
41061;SDS011;26812;42.662;23.352;2023-07-29T05:48:24;4.78;;;2.58;;
41061;SDS011;26812;42.662;23.352;2023-07-29T05:50:49;2.47;;;2.28;;
41061;SDS011;26812;42.662;23.352;2023-07-29T05:53:15;2.38;;;2.17;;
41061;SDS011;26812;42.662;23.352;2023-07-29T05:55:40;2.70;;;2.50;;
41061;SDS011;26812;42.662;23.352;2023-07-29T05:58:06;3.15;;;2.80;;
41061;SDS011;26812;42.662;23.352;2023-07-29T06:00:31;5.28;;;3.20;;
41061;SDS011;26812;42.662;23.352;2023-07-29T06:02:56;3.85;;;3.13;;
41061;SDS011;26812;42.662;23.352;2023-07-29T06:05:22;3.63;;;3.15;;
41061;SDS011;26812;42.662;23.352;2023-07-29T06:07:47;5.05;;;3.15;;
41061;SDS011;26812;42.662;23.352;2023-07-29T06:10:13;3.05;;;2.75;;
41061;SDS011;26812;42.662;23.352;2023-07-29T06:12:42;3.28;;;2.63;;
41061;SDS011;26812;42.662;23.352;2023-07-29T06:15:08;3.58;;;3.25;;
41061;SDS011;26812;42.662;23.352;2023-07-29T06:17:34;3.75;;;3.05;;
41061;SDS011;26812;42.662;23.352;2023-07-29T06:19:59;2.47;;;2.25;;
41061;SDS011;26812;42.662;23.352;2023-07-29T06:22:25;3.22;;;2.85;;
41061;SDS011;26812;42.662;23.352;2023-07-29T06:24:50;3.00;;;2.63;;
41061;SDS011;26812;42.662;23.352;2023-07-29T06:27:15;5.18;;;2.67;;
41061;SDS011;26812;42.662;23.352;2023-07-29T06:29:41;7.72;;;3.55;;
41061;SDS011;26812;42.662;23.352;2023-07-29T06:32:06;3.92;;;2.80;;
41061;SDS011;26812;42.662;23.352;2023-07-29T06:34:32;5.10;;;3.78;;
41061;SDS011;26812;42.662;23.352;2023-07-29T06:36:57;4.78;;;2.97;;
41061;SDS011;26812;42.662;23.352;2023-07-29T06:39:23;8.18;;;3.83;;
41061;SDS011;26812;42.662;23.352;2023-07-29T06:41:48;5.47;;;3.30;;
41061;SDS011;26812;42.662;23.352;2023-07-29T06:44:13;3.35;;;3.05;;
41061;SDS011;26812;42.662;23.352;2023-07-29T06:46:45;4.22;;;3.20;;
41061;SDS011;26812;42.662;23.352;2023-07-29T06:49:11;4.50;;;3.55;;
41061;SDS011;26812;42.662;23.352;2023-07-29T06:51:37;6.43;;;3.20;;
41061;SDS011;26812;42.662;23.352;2023-07-29T06:54:02;4.20;;;3.60;;
41061;SDS011;26812;42.662;23.352;2023-07-29T06:56:28;3.88;;;3.00;;
41061;SDS011;26812;42.662;23.352;2023-07-29T06:58:53;5.43;;;3.63;;
41061;SDS011;26812;42.662;23.352;2023-07-29T07:01:18;3.78;;;3.38;;
41061;SDS011;26812;42.662;23.352;2023-07-29T07:03:44;3.30;;;3.10;;
41061;SDS011;26812;42.662;23.352;2023-07-29T07:06:09;5.18;;;2.90;;
41061;SDS011;26812;42.662;23.352;2023-07-29T07:08:35;3.92;;;3.20;;
41061;SDS011;26812;42.662;23.352;2023-07-29T07:11:00;8.05;;;3.25;;
41061;SDS011;26812;42.662;23.352;2023-07-29T07:13:25;3.85;;;3.25;;
41061;SDS011;26812;42.662;23.352;2023-07-29T07:15:54;4.43;;;3.85;;
41061;SDS011;26812;42.662;23.352;2023-07-29T07:18:20;4.30;;;3.45;;
41061;SDS011;26812;42.662;23.352;2023-07-29T07:20:50;6.13;;;3.15;;
41061;SDS011;26812;42.662;23.352;2023-07-29T07:23:16;4.43;;;2.97;;
41061;SDS011;26812;42.662;23.352;2023-07-29T07:25:42;5.40;;;3.25;;
41061;SDS011;26812;42.662;23.352;2023-07-29T07:28:08;6.72;;;3.72;;
41061;SDS011;26812;42.662;23.352;2023-07-29T07:30:34;4.20;;;3.45;;
41061;SDS011;26812;42.662;23.352;2023-07-29T07:32:59;5.28;;;3.28;;
41061;SDS011;26812;42.662;23.352;2023-07-29T07:35:24;3.45;;;3.13;;
41061;SDS011;26812;42.662;23.352;2023-07-29T07:37:50;5.05;;;2.75;;
41061;SDS011;26812;42.662;23.352;2023-07-29T07:40:15;3.33;;;2.58;;
41061;SDS011;26812;42.662;23.352;2023-07-29T07:42:40;4.53;;;3.00;;
41061;SDS011;26812;42.662;23.352;2023-07-29T07:45:06;4.78;;;2.97;;
41061;SDS011;26812;42.662;23.352;2023-07-29T07:47:31;7.22;;;3.85;;
41061;SDS011;26812;42.662;23.352;2023-07-29T07:49:57;4.88;;;2.85;;
41061;SDS011;26812;42.662;23.352;2023-07-29T07:52:22;4.53;;;3.33;;
41061;SDS011;26812;42.662;23.352;2023-07-29T07:54:51;4.72;;;3.30;;
41061;SDS011;26812;42.662;23.352;2023-07-29T07:57:20;3.63;;;2.97;;
41061;SDS011;26812;42.662;23.352;2023-07-29T07:59:46;4.88;;;3.13;;
41061;SDS011;26812;42.662;23.352;2023-07-29T08:02:12;3.28;;;2.85;;
41061;SDS011;26812;42.662;23.352;2023-07-29T08:04:37;5.70;;;2.90;;
41061;SDS011;26812;42.662;23.352;2023-07-29T08:07:02;5.63;;;2.80;;
41061;SDS011;26812;42.662;23.352;2023-07-29T08:09:28;4.40;;;2.55;;
41061;SDS011;26812;42.662;23.352;2023-07-29T08:11:53;3.78;;;2.67;;
41061;SDS011;26812;42.662;23.352;2023-07-29T08:14:19;3.65;;;2.30;;
41061;SDS011;26812;42.662;23.352;2023-07-29T08:16:44;2.70;;;2.50;;
41061;SDS011;26812;42.662;23.352;2023-07-29T08:19:09;5.47;;;2.65;;
41061;SDS011;26812;42.662;23.352;2023-07-29T08:21:35;3.20;;;2.75;;
41061;SDS011;26812;42.662;23.352;2023-07-29T08:24:01;3.50;;;2.50;;
41061;SDS011;26812;42.662;23.352;2023-07-29T08:26:26;3.50;;;2.83;;
41061;SDS011;26812;42.662;23.352;2023-07-29T08:28:52;3.38;;;2.60;;
41061;SDS011;26812;42.662;23.352;2023-07-29T08:31:17;2.40;;;2.20;;
41061;SDS011;26812;42.662;23.352;2023-07-29T08:33:42;3.25;;;2.47;;
41061;SDS011;26812;42.662;23.352;2023-07-29T08:36:08;2.95;;;2.22;;
41061;SDS011;26812;42.662;23.352;2023-07-29T08:38:33;3.70;;;2.55;;
41061;SDS011;26812;42.662;23.352;2023-07-29T08:41:02;3.75;;;2.63;;
41061;SDS011;26812;42.662;23.352;2023-07-29T08:43:41;4.10;;;2.50;;
41061;SDS011;26812;42.662;23.352;2023-07-29T08:46:12;2.88;;;2.58;;
41061;SDS011;26812;42.662;23.352;2023-07-29T08:48:42;4.28;;;2.28;;
41061;SDS011;26812;42.662;23.352;2023-07-29T08:51:11;2.72;;;2.10;;
41061;SDS011;26812;42.662;23.352;2023-07-29T08:53:38;4.72;;;2.20;;
41061;SDS011;26812;42.662;23.352;2023-07-29T08:56:04;2.50;;;2.20;;
41061;SDS011;26812;42.662;23.352;2023-07-29T08:58:30;3.00;;;2.28;;
41061;SDS011;26812;42.662;23.352;2023-07-29T09:00:57;2.70;;;1.85;;
41061;SDS011;26812;42.662;23.352;2023-07-29T09:03:22;2.25;;;1.80;;
41061;SDS011;26812;42.662;23.352;2023-07-29T09:05:48;1.88;;;1.60;;
41061;SDS011;26812;42.662;23.352;2023-07-29T09:08:14;3.13;;;1.67;;
41061;SDS011;26812;42.662;23.352;2023-07-29T09:10:40;1.50;;;1.33;;
41061;SDS011;26812;42.662;23.352;2023-07-29T09:13:06;2.03;;;1.75;;
41061;SDS011;26812;42.662;23.352;2023-07-29T09:15:33;3.58;;;1.95;;
41061;SDS011;26812;42.662;23.352;2023-07-29T09:18:10;1.83;;;1.50;;
41061;SDS011;26812;42.662;23.352;2023-07-29T09:20:45;1.63;;;1.40;;
41061;SDS011;26812;42.662;23.352;2023-07-29T09:23:11;1.55;;;1.30;;
41061;SDS011;26812;42.662;23.352;2023-07-29T09:25:36;1.92;;;1.50;;
41061;SDS011;26812;42.662;23.352;2023-07-29T09:28:07;1.85;;;1.67;;
41061;SDS011;26812;42.662;23.352;2023-07-29T09:30:34;2.05;;;1.55;;
41061;SDS011;26812;42.662;23.352;2023-07-29T09:33:00;1.42;;;1.27;;
41061;SDS011;26812;42.662;23.352;2023-07-29T09:35:27;1.38;;;1.00;;
41061;SDS011;26812;42.662;23.352;2023-07-29T09:37:53;2.30;;;1.25;;
41061;SDS011;26812;42.662;23.352;2023-07-29T09:40:25;1.45;;;1.15;;
41061;SDS011;26812;42.662;23.352;2023-07-29T09:42:51;1.30;;;1.20;;
41061;SDS011;26812;42.662;23.352;2023-07-29T09:47:47;3.05;;;1.30;;
41061;SDS011;26812;42.662;23.352;2023-07-29T09:50:13;1.35;;;1.25;;
41061;SDS011;26812;42.662;23.352;2023-07-29T09:52:39;1.42;;;1.33;;
41061;SDS011;26812;42.662;23.352;2023-07-29T09:55:07;1.40;;;1.05;;
41061;SDS011;26812;42.662;23.352;2023-07-29T09:57:42;1.65;;;1.40;;
41061;SDS011;26812;42.662;23.352;2023-07-29T10:00:10;1.45;;;1.20;;
41061;SDS011;26812;42.662;23.352;2023-07-29T10:02:37;1.90;;;1.70;;
41061;SDS011;26812;42.662;23.352;2023-07-29T10:05:04;2.05;;;1.73;;
41061;SDS011;26812;42.662;23.352;2023-07-29T10:07:30;3.05;;;1.63;;
41061;SDS011;26812;42.662;23.352;2023-07-29T10:09:56;4.75;;;1.25;;
41061;SDS011;26812;42.662;23.352;2023-07-29T10:12:24;2.17;;;1.05;;
41061;SDS011;26812;42.662;23.352;2023-07-29T10:14:51;2.08;;;1.40;;
41061;SDS011;26812;42.662;23.352;2023-07-29T10:17:18;1.70;;;0.93;;
41061;SDS011;26812;42.662;23.352;2023-07-29T10:19:46;1.63;;;1.13;;
41061;SDS011;26812;42.662;23.352;2023-07-29T10:22:12;2.13;;;0.98;;
41061;SDS011;26812;42.662;23.352;2023-07-29T10:24:41;1.15;;;1.05;;
41061;SDS011;26812;42.662;23.352;2023-07-29T10:27:09;3.00;;;1.30;;
41061;SDS011;26812;42.662;23.352;2023-07-29T10:29:38;2.33;;;1.33;;
41061;SDS011;26812;42.662;23.352;2023-07-29T10:32:08;2.50;;;2.00;;
41061;SDS011;26812;42.662;23.352;2023-07-29T10:34:36;1.30;;;1.00;;
41061;SDS011;26812;42.662;23.352;2023-07-29T10:37:01;1.92;;;1.10;;
41061;SDS011;26812;42.662;23.352;2023-07-29T10:39:27;1.05;;;0.88;;
41061;SDS011;26812;42.662;23.352;2023-07-29T10:42:05;1.27;;;0.93;;
41061;SDS011;26812;42.662;23.352;2023-07-29T10:47:12;1.42;;;1.00;;
41061;SDS011;26812;42.662;23.352;2023-07-29T10:49:42;1.73;;;0.90;;
41061;SDS011;26812;42.662;23.352;2023-07-29T10:52:08;5.10;;;1.23;;
41061;SDS011;26812;42.662;23.352;2023-07-29T10:57:15;4.97;;;2.13;;
41061;SDS011;26812;42.662;23.352;2023-07-29T10:59:55;1.45;;;1.10;;
41061;SDS011;26812;42.662;23.352;2023-07-29T11:02:31;2.30;;;1.35;;
41061;SDS011;26812;42.662;23.352;2023-07-29T11:05:00;1.65;;;0.88;;
41061;SDS011;26812;42.662;23.352;2023-07-29T11:07:48;0.88;;;0.80;;
41061;SDS011;26812;42.662;23.352;2023-07-29T11:10:14;6.47;;;1.60;;
41061;SDS011;26812;42.662;23.352;2023-07-29T11:20:30;1.95;;;0.82;;
41061;SDS011;26812;42.662;23.352;2023-07-29T11:22:58;0.80;;;0.63;;
41061;SDS011;26812;42.662;23.352;2023-07-29T11:25:26;1.52;;;0.82;;
41061;SDS011;26812;42.662;23.352;2023-07-29T11:27:53;0.82;;;0.73;;
41061;SDS011;26812;42.662;23.352;2023-07-29T11:30:20;2.38;;;1.00;;
41061;SDS011;26812;42.662;23.352;2023-07-29T11:32:46;3.08;;;0.85;;
41061;SDS011;26812;42.662;23.352;2023-07-29T11:35:13;0.85;;;0.70;;
41061;SDS011;26812;42.662;23.352;2023-07-29T11:37:44;1.60;;;0.70;;
41061;SDS011;26812;42.662;23.352;2023-07-29T11:40:15;1.38;;;1.10;;
41061;SDS011;26812;42.662;23.352;2023-07-29T11:42:42;2.42;;;0.82;;
41061;SDS011;26812;42.662;23.352;2023-07-29T11:45:08;3.05;;;1.13;;
41061;SDS011;26812;42.662;23.352;2023-07-29T11:47:34;1.48;;;1.00;;
41061;SDS011;26812;42.662;23.352;2023-07-29T11:50:02;1.23;;;0.80;;
41061;SDS011;26812;42.662;23.352;2023-07-29T11:52:35;0.93;;;0.45;;
41061;SDS011;26812;42.662;23.352;2023-07-29T11:55:04;1.25;;;0.80;;
41061;SDS011;26812;42.662;23.352;2023-07-29T11:57:32;2.58;;;0.70;;
41061;SDS011;26812;42.662;23.352;2023-07-29T12:00:01;0.90;;;0.60;;
41061;SDS011;26812;42.662;23.352;2023-07-29T12:02:28;1.02;;;0.70;;
41061;SDS011;26812;42.662;23.352;2023-07-29T12:04:54;0.75;;;0.63;;
41061;SDS011;26812;42.662;23.352;2023-07-29T12:07:22;0.73;;;0.50;;
41061;SDS011;26812;42.662;23.352;2023-07-29T12:09:47;1.05;;;0.70;;
41061;SDS011;26812;42.662;23.352;2023-07-29T12:12:14;0.70;;;0.52;;
41061;SDS011;26812;42.662;23.352;2023-07-29T12:14:43;1.48;;;0.80;;
41061;SDS011;26812;42.662;23.352;2023-07-29T12:17:14;1.30;;;1.20;;
41061;SDS011;26812;42.662;23.352;2023-07-29T12:19:40;1.25;;;0.73;;
41061;SDS011;26812;42.662;23.352;2023-07-29T12:22:07;0.88;;;0.77;;
41061;SDS011;26812;42.662;23.352;2023-07-29T12:24:36;2.03;;;0.65;;
41061;SDS011;26812;42.662;23.352;2023-07-29T12:27:03;2.63;;;0.70;;
41061;SDS011;26812;42.662;23.352;2023-07-29T12:29:29;0.88;;;0.77;;
41061;SDS011;26812;42.662;23.352;2023-07-29T12:32:03;1.85;;;0.90;;
41061;SDS011;26812;42.662;23.352;2023-07-29T12:34:30;2.35;;;1.17;;
41061;SDS011;26812;42.662;23.352;2023-07-29T12:36:58;1.05;;;0.65;;
41061;SDS011;26812;42.662;23.352;2023-07-29T12:39:28;0.73;;;0.68;;
41061;SDS011;26812;42.662;23.352;2023-07-29T12:41:56;1.30;;;0.80;;
41061;SDS011;26812;42.662;23.352;2023-07-29T12:44:23;1.95;;;1.08;;
41061;SDS011;26812;42.662;23.352;2023-07-29T12:46:49;1.27;;;0.98;;
41061;SDS011;26812;42.662;23.352;2023-07-29T12:49:15;1.00;;;0.70;;
41061;SDS011;26812;42.662;23.352;2023-07-29T12:51:41;0.93;;;0.80;;
41061;SDS011;26812;42.662;23.352;2023-07-29T12:54:06;0.98;;;0.82;;
41061;SDS011;26812;42.662;23.352;2023-07-29T12:56:31;0.85;;;0.70;;
41061;SDS011;26812;42.662;23.352;2023-07-29T12:58:58;1.85;;;0.68;;
41061;SDS011;26812;42.662;23.352;2023-07-29T13:01:24;1.30;;;0.90;;
41061;SDS011;26812;42.662;23.352;2023-07-29T13:03:49;1.25;;;0.73;;
41061;SDS011;26812;42.662;23.352;2023-07-29T13:06:15;3.30;;;1.02;;
41061;SDS011;26812;42.662;23.352;2023-07-29T13:08:41;1.25;;;0.80;;
41061;SDS011;26812;42.662;23.352;2023-07-29T13:11:07;1.05;;;0.85;;
41061;SDS011;26812;42.662;23.352;2023-07-29T13:13:32;2.10;;;1.80;;
41061;SDS011;26812;42.662;23.352;2023-07-29T13:15:58;1.27;;;1.00;;
41061;SDS011;26812;42.662;23.352;2023-07-29T13:18:23;1.58;;;0.75;;
41061;SDS011;26812;42.662;23.352;2023-07-29T13:20:49;2.00;;;0.90;;
41061;SDS011;26812;42.662;23.352;2023-07-29T13:23:15;1.10;;;1.00;;
41061;SDS011;26812;42.662;23.352;2023-07-29T13:25:40;3.22;;;1.00;;
41061;SDS011;26812;42.662;23.352;2023-07-29T13:28:06;1.63;;;1.10;;
41061;SDS011;26812;42.662;23.352;2023-07-29T13:30:32;1.10;;;0.95;;
41061;SDS011;26812;42.662;23.352;2023-07-29T13:32:58;1.60;;;1.10;;
41061;SDS011;26812;42.662;23.352;2023-07-29T13:35:23;0.88;;;0.80;;
41061;SDS011;26812;42.662;23.352;2023-07-29T13:37:49;1.23;;;0.63;;
41061;SDS011;26812;42.662;23.352;2023-07-29T13:40:14;0.75;;;0.70;;
41061;SDS011;26812;42.662;23.352;2023-07-29T13:42:39;2.20;;;1.05;;
41061;SDS011;26812;42.662;23.352;2023-07-29T13:45:05;0.93;;;0.80;;
41061;SDS011;26812;42.662;23.352;2023-07-29T13:47:30;2.53;;;0.90;;
41061;SDS011;26812;42.662;23.352;2023-07-29T13:49:56;1.05;;;0.75;;
41061;SDS011;26812;42.662;23.352;2023-07-29T13:52:21;5.63;;;1.23;;
41061;SDS011;26812;42.662;23.352;2023-07-29T13:54:47;0.75;;;0.60;;
41061;SDS011;26812;42.662;23.352;2023-07-29T13:57:12;1.00;;;0.90;;
41061;SDS011;26812;42.662;23.352;2023-07-29T13:59:37;1.33;;;0.88;;
41061;SDS011;26812;42.662;23.352;2023-07-29T14:02:05;3.17;;;0.95;;
41061;SDS011;26812;42.662;23.352;2023-07-29T14:04:34;0.93;;;0.80;;
41061;SDS011;26812;42.662;23.352;2023-07-29T14:06:59;1.13;;;0.95;;
41061;SDS011;26812;42.662;23.352;2023-07-29T14:09:25;2.45;;;0.95;;
41061;SDS011;26812;42.662;23.352;2023-07-29T14:11:51;2.13;;;0.93;;
41061;SDS011;26812;42.662;23.352;2023-07-29T14:14:17;0.88;;;0.77;;
41061;SDS011;26812;42.662;23.352;2023-07-29T14:16:42;1.08;;;0.88;;
41061;SDS011;26812;42.662;23.352;2023-07-29T14:19:08;1.65;;;1.05;;
41061;SDS011;26812;42.662;23.352;2023-07-29T14:21:34;1.02;;;1.00;;
41061;SDS011;26812;42.662;23.352;2023-07-29T14:23:59;0.82;;;0.70;;
41061;SDS011;26812;42.662;23.352;2023-07-29T14:26:25;0.65;;;0.60;;
41061;SDS011;26812;42.662;23.352;2023-07-29T14:28:50;2.00;;;0.98;;
41061;SDS011;26812;42.662;23.352;2023-07-29T14:31:16;1.10;;;0.88;;
41061;SDS011;26812;42.662;23.352;2023-07-29T14:33:42;1.52;;;0.82;;
41061;SDS011;26812;42.662;23.352;2023-07-29T14:36:08;1.20;;;1.00;;
41061;SDS011;26812;42.662;23.352;2023-07-29T14:38:34;1.55;;;0.98;;
41061;SDS011;26812;42.662;23.352;2023-07-29T14:41:00;1.52;;;1.00;;
41061;SDS011;26812;42.662;23.352;2023-07-29T14:43:32;1.50;;;0.90;;
41061;SDS011;26812;42.662;23.352;2023-07-29T14:45:58;2.60;;;0.95;;
41061;SDS011;26812;42.662;23.352;2023-07-29T14:48:24;1.52;;;1.05;;
41061;SDS011;26812;42.662;23.352;2023-07-29T14:50:49;1.45;;;0.93;;